Time;durP1;ratioP1;P1;durP2;ratioP2;P2;SDS_P1;SDS_P2;PMS_P1;PMS_P2;Temp;Humidity;BMP_temperature;BMP_pressure;BME280_temperature;BME280_humidity;BME280_pressure;Samples;Min_cycle;Max_cycle;Signal;HPM_P1;HPM_P2
2021/06/26 00:01:02;;;;;;;6.88;6.20;;;;;;;14.24;71.72;101600.38;5015243;28;20068;-72
2021/06/26 00:03:28;;;;;;;6.28;5.88;;;;;;;14.17;71.77;101596.13;5015698;28;20144;-72
2021/06/26 00:05:54;;;;;;;6.05;5.65;;;;;;;14.02;72.29;101592.84;5015368;28;20438;-72
2021/06/26 00:08:21;;;;;;;6.32;5.75;;;;;;;14.07;72.27;101602.41;5015305;28;20026;-72
2021/06/26 00:10:46;;;;;;;6.20;5.60;;;;;;;14.03;71.90;101597.22;5031590;28;20026;-72
2021/06/26 00:13:13;;;;;;;6.60;6.10;;;;;;;14.12;72.10;101593.53;5013422;28;20044;-72
2021/06/26 00:15:38;;;;;;;5.75;5.35;;;;;;;14.34;71.90;101594.06;5015131;28;20096;-72
2021/06/26 00:18:04;;;;;;;4.82;4.47;;;;;;;14.38;72.42;101594.84;5015016;28;20363;-72
2021/06/26 00:20:29;;;;;;;8.40;5.75;;;;;;;14.10;72.93;101599.75;4998615;28;20054;-72
2021/06/26 00:22:55;;;;;;;6.32;5.93;;;;;;;13.97;73.26;101604.31;4997805;28;20036;-72
2021/06/26 00:25:22;;;;;;;6.00;5.50;;;;;;;13.97;73.47;101589.41;4998296;28;20030;-72
2021/06/26 00:27:48;;;;;;;5.70;5.35;;;;;;;14.19;72.28;101595.19;5015999;28;20108;-72
2021/06/26 00:30:14;;;;;;;5.57;5.25;;;;;;;14.20;72.22;101591.66;4998756;28;20563;-72
2021/06/26 00:32:39;;;;;;;5.63;5.32;;;;;;;14.17;71.25;101589.09;5014869;28;20033;-72
2021/06/26 00:35:05;;;;;;;5.72;5.32;;;;;;;14.08;72.09;101596.25;5014939;28;20427;-72
2021/06/26 00:37:30;;;;;;;5.80;5.40;;;;;;;13.99;72.98;101599.91;4998403;28;20116;-72
2021/06/26 00:39:56;;;;;;;4.97;4.72;;;;;;;13.94;73.97;101597.34;5014235;28;20120;-72
2021/06/26 00:42:21;;;;;;;6.00;5.60;;;;;;;13.82;72.97;101600.16;5014092;28;20022;-72
2021/06/26 00:44:46;;;;;;;6.10;5.60;;;;;;;13.82;72.66;101597.53;4998106;28;20041;-73
2021/06/26 00:47:12;;;;;;;6.07;5.60;;;;;;;13.90;72.11;101600.91;4998408;28;20029;-72
2021/06/26 00:49:39;;;;;;;7.05;5.70;;;;;;;13.84;72.83;101598.41;5014469;28;20032;-72
2021/06/26 00:52:05;;;;;;;5.10;4.78;;;;;;;13.68;72.05;101608.25;5014022;28;20021;-72
2021/06/26 00:54:30;;;;;;;5.50;5.15;;;;;;;13.71;72.23;101615.22;5013556;28;20447;-72
2021/06/26 00:56:56;;;;;;;5.43;5.13;;;;;;;13.68;73.16;101606.50;5014091;28;20037;-72
2021/06/26 00:59:22;;;;;;;5.15;4.75;;;;;;;13.69;73.00;101605.59;5014316;28;20381;-72
2021/06/26 01:01:47;;;;;;;5.30;4.90;;;;;;;13.89;72.11;101596.53;5013897;28;20101;-73
2021/06/26 01:04:13;;;;;;;5.05;4.75;;;;;;;14.07;72.23;101590.16;5014690;28;20068;-72
2021/06/26 01:06:38;;;;;;;5.18;4.78;;;;;;;14.01;73.03;101590.25;4997677;28;20022;-72
2021/06/26 01:09:04;;;;;;;5.30;4.85;;;;;;;13.90;73.27;101587.78;5014163;28;20076;-72
2021/06/26 01:11:29;;;;;;;4.68;4.38;;;;;;;13.78;72.52;101580.94;5013608;28;20113;-72
2021/06/26 01:13:54;;;;;;;4.40;4.00;;;;;;;13.64;72.42;101591.66;5013531;28;20068;-72
2021/06/26 01:16:22;;;;;;;3.92;3.72;;;;;;;14.01;70.26;101587.59;5013682;28;20049;-72
2021/06/26 01:18:47;;;;;;;3.45;3.28;;;;;;;14.11;69.12;101588.31;5013933;28;20024;-72
2021/06/26 01:21:13;;;;;;;4.55;4.25;;;;;;;13.73;71.21;101589.78;5013763;28;20022;-72
2021/06/26 01:23:45;;;;;;;4.50;4.30;;;;;;;13.89;70.32;101588.66;4996718;28;20028;-72
2021/06/26 01:26:11;;;;;;;4.80;4.50;;;;;;;13.65;72.67;101595.19;5014041;28;20097;-72
2021/06/26 01:28:36;;;;;;;4.40;4.10;;;;;;;13.94;70.63;101589.47;4997210;28;20104;-72
2021/06/26 01:31:01;;;;;;;4.05;3.63;;;;;;;14.01;70.36;101585.84;5013517;28;20447;-73
2021/06/26 01:33:27;;;;;;;4.97;4.68;;;;;;;14.09;70.42;101593.59;5013490;28;20091;-72
2021/06/26 01:35:52;;;;;;;4.72;4.43;;;;;;;14.08;70.53;101580.50;5013549;28;20044;-72
2021/06/26 01:38:17;;;;;;;4.22;4.03;;;;;;;13.46;73.20;101586.69;5013272;28;20029;-72
2021/06/26 01:40:42;;;;;;;4.93;4.63;;;;;;;13.61;72.93;101585.63;4997270;28;20014;-72
2021/06/26 01:43:11;;;;;;;4.50;4.10;;;;;;;13.82;71.75;101584.41;5012609;28;20108;-72
2021/06/26 01:45:36;;;;;;;7.70;4.70;;;;;;;13.57;72.67;101590.03;5013417;28;20418;-72
2021/06/26 01:48:02;;;;;;;4.25;3.85;;;;;;;13.46;72.94;101587.56;5013176;28;20034;-72
2021/06/26 01:50:29;;;;;;;4.78;4.40;;;;;;;13.37;74.02;101594.69;5013370;28;20033;-72
2021/06/26 01:52:55;;;;;;;4.75;4.35;;;;;;;13.31;73.27;101593.84;4996079;28;20092;-72
2021/06/26 01:55:21;;;;;;;4.60;4.30;;;;;;;13.27;73.30;101591.31;5013447;28;20427;-72
2021/06/26 01:57:50;;;;;;;5.10;4.80;;;;;;;13.24;73.68;101589.59;4996762;28;20045;-72
2021/06/26 02:00:17;;;;;;;4.65;4.40;;;;;;;13.38;73.27;101591.19;4996952;28;20017;-72
2021/06/26 02:02:42;;;;;;;5.43;4.90;;;;;;;12.99;73.93;101589.91;4996204;28;20057;-72
2021/06/26 02:05:09;;;;;;;5.13;4.72;;;;;;;12.87;74.63;101594.41;5012269;28;20026;-72
2021/06/26 02:07:34;;;;;;;6.00;4.68;;;;;;;12.85;74.68;101602.28;5013011;28;20026;-73
2021/06/26 02:10:00;;;;;;;5.65;5.25;;;;;;;12.96;74.26;101595.16;5013126;28;20032;-72
2021/06/26 02:12:26;;;;;;;5.38;5.07;;;;;;;12.95;73.86;101593.44;5012658;28;20057;-72
2021/06/26 02:14:53;;;;;;;5.15;4.88;;;;;;;12.95;74.18;101590.81;5012721;28;20033;-72
2021/06/26 02:17:22;;;;;;;4.65;4.35;;;;;;;12.99;75.35;101597.75;5013068;28;20633;-72
2021/06/26 02:19:48;;;;;;;5.15;4.78;;;;;;;12.91;74.24;101596.97;5012625;28;20029;-71
2021/06/26 02:22:14;;;;;;;5.30;4.93;;;;;;;12.88;74.54;101604.00;5012749;28;20339;-71
2021/06/26 02:24:40;;;;;;;5.78;5.25;;;;;;;12.84;74.31;101600.53;5013363;28;20111;-72
2021/06/26 02:27:06;;;;;;;5.78;5.38;;;;;;;12.74;74.68;101607.63;5012955;28;20065;-71
2021/06/26 02:29:31;;;;;;;6.07;5.68;;;;;;;12.76;74.88;101610.25;5012646;28;20421;-72
2021/06/26 02:31:59;;;;;;;6.10;5.53;;;;;;;12.65;75.57;101603.38;5012762;28;20025;-72
2021/06/26 02:34:24;;;;;;;6.10;5.80;;;;;;;12.73;75.57;101602.41;5013469;28;20412;-72
2021/06/26 02:36:49;;;;;;;5.97;5.47;;;;;;;12.70;75.15;101602.47;5012614;28;20041;-72
2021/06/26 02:39:15;;;;;;;5.70;5.30;;;;;;;12.65;75.88;101603.38;4996393;28;20026;-72
2021/06/26 02:41:40;;;;;;;5.72;5.20;;;;;;;12.68;75.48;101598.09;5012510;28;20026;-72
2021/06/26 02:44:05;;;;;;;5.85;5.55;;;;;;;12.83;76.20;101601.44;5013323;28;20416;-72
2021/06/26 02:46:31;;;;;;;6.47;5.93;;;;;;;12.94;75.57;101602.19;5012749;28;20072;-71
2021/06/26 02:48:57;;;;;;;5.65;5.35;;;;;;;13.00;75.08;101599.47;5012792;28;20029;-72
2021/06/26 02:51:22;;;;;;;5.18;4.88;;;;;;;13.05;74.63;101601.16;5013326;28;20382;-72
2021/06/26 02:53:47;;;;;;;5.43;4.38;;;;;;;13.23;74.26;101595.72;5012354;28;20109;-72
2021/06/26 02:56:13;;;;;;;8.18;4.90;;;;;;;13.19;73.55;101599.25;5012471;28;20072;-72
2021/06/26 02:58:38;;;;;;;5.28;4.97;;;;;;;13.26;74.73;101605.28;5012710;28;20311;-72
2021/06/26 03:01:03;;;;;;;5.07;4.78;;;;;;;13.23;74.37;101606.19;5013446;28;20030;-72
2021/06/26 03:03:29;;;;;;;5.00;4.63;;;;;;;13.51;72.27;101603.22;5012238;28;20030;-72
2021/06/26 03:05:54;;;;;;;5.07;4.78;;;;;;;13.69;71.10;101600.34;4996205;28;20046;-72
2021/06/26 03:08:19;;;;;;;5.68;5.22;;;;;;;13.88;70.52;101599.19;5013356;28;20022;-71
2021/06/26 03:10:45;;;;;;;6.20;5.25;;;;;;;13.83;71.20;101601.91;5012119;28;20022;-72
2021/06/26 03:13:10;;;;;;;5.60;5.10;;;;;;;13.80;70.61;101602.81;4995377;28;20037;-72
2021/06/26 03:15:35;;;;;;;5.78;5.40;;;;;;;13.61;71.05;101602.22;5012508;28;20095;-72
2021/06/26 03:18:01;;;;;;;6.45;5.30;;;;;;;13.67;71.73;101599.53;4999443;28;20411;-72
2021/06/26 03:20:26;;;;;;;5.55;5.15;;;;;;;13.65;74.21;101609.16;5016254;28;20030;-72
2021/06/26 03:22:52;;;;;;;6.00;5.63;;;;;;;13.65;72.25;101603.06;5015351;28;20328;-72
2021/06/26 03:25:17;;;;;;;5.60;5.25;;;;;;;13.76;73.95;101610.78;4999705;28;20017;-72
2021/06/26 03:27:43;;;;;;;5.60;5.28;;;;;;;13.85;74.17;101623.75;5015852;28;20026;-72
2021/06/26 03:30:09;;;;;;;5.60;5.10;;;;;;;13.96;73.46;101619.22;4999516;28;20022;-72
2021/06/26 03:32:34;;;;;;;5.57;4.97;;;;;;;13.98;73.30;101622.66;4998817;28;20030;-72
2021/06/26 03:35:00;;;;;;;5.25;4.90;;;;;;;14.05;73.80;101619.97;4999424;28;20032;-72
2021/06/26 03:37:25;;;;;;;4.70;4.40;;;;;;;14.16;71.84;101615.38;5015650;28;20026;-72
2021/06/26 03:39:51;;;;;;;5.10;4.80;;;;;;;14.16;72.58;101618.03;4999401;28;20445;-72
2021/06/26 03:42:16;;;;;;;5.10;4.70;;;;;;;13.91;72.09;101621.03;5015538;28;20621;-71
2021/06/26 03:44:41;;;;;;;5.47;4.97;;;;;;;13.99;73.39;101623.56;5016296;28;20075;-71
2021/06/26 03:47:07;;;;;;;5.50;5.20;;;;;;;14.05;72.61;101628.69;4999247;28;20036;-72
2021/06/26 03:49:36;;;;;;;5.22;4.75;;;;;;;14.12;73.49;101629.47;5015543;28;20049;-72
2021/06/26 03:52:01;;;;;;;5.70;5.30;;;;;;;14.13;73.32;101632.06;4999558;28;20645;-72
2021/06/26 03:54:27;;;;;;;5.43;5.13;;;;;;;14.16;73.31;101631.16;5014825;28;20102;-72
2021/06/26 03:56:52;;;;;;;5.78;5.25;;;;;;;14.23;73.45;101638.03;5015547;28;20057;-72
2021/06/26 03:59:17;;;;;;;5.55;5.15;;;;;;;14.32;73.46;101635.25;5015173;28;20061;-72
2021/06/26 04:01:43;;;;;;;5.10;4.80;;;;;;;14.48;73.36;101637.63;5015283;28;20068;-71
2021/06/26 04:04:08;;;;;;;5.78;5.38;;;;;;;14.76;70.40;101632.75;5014564;28;20104;-72
2021/06/26 04:06:33;;;;;;;4.28;4.07;;;;;;;14.89;70.38;101633.41;5015299;28;20029;-72
2021/06/26 04:08:59;;;;;;;4.55;4.35;;;;;;;15.03;70.45;101631.34;4998530;28;20033;-72
2021/06/26 04:11:24;;;;;;;4.93;4.70;;;;;;;14.88;72.25;101631.69;5016105;28;20440;-73
2021/06/26 04:13:49;;;;;;;6.18;4.38;;;;;;;15.04;70.28;101625.22;5014517;28;20061;-72
2021/06/26 04:16:14;;;;;;;5.65;5.15;;;;;;;15.20;69.94;101622.25;5014842;28;20112;-72
2021/06/26 04:18:40;;;;;;;4.40;4.20;;;;;;;14.90;71.17;101621.97;5016099;28;20029;-71
2021/06/26 04:21:05;;;;;;;4.90;4.60;;;;;;;15.14;69.78;101625.03;5015806;28;20048;-72
2021/06/26 04:23:30;;;;;;;4.70;4.40;;;;;;;15.32;69.37;101626.41;5030923;28;20110;-72
2021/06/26 04:25:56;;;;;;;4.63;4.43;;;;;;;15.37;69.21;101629.81;5014577;28;20037;-72
2021/06/26 04:28:21;;;;;;;5.25;4.78;;;;;;;15.38;68.80;101627.16;5014357;28;20033;-72
2021/06/26 04:30:46;;;;;;;5.00;4.70;;;;;;;15.35;68.68;101627.22;5015049;28;20022;-72
2021/06/26 04:33:12;;;;;;;5.15;4.85;;;;;;;15.34;68.61;101635.16;5014203;28;20029;-72
2021/06/26 04:35:37;;;;;;;5.22;4.72;;;;;;;15.32;68.27;101627.25;4998372;28;20408;-72
2021/06/26 04:38:05;;;;;;;5.03;4.75;;;;;;;15.25;68.85;101630.94;5014844;28;20036;-72
2021/06/26 04:40:31;;;;;;;4.55;4.35;;;;;;;15.35;69.13;101632.47;5014816;28;20423;-72
2021/06/26 04:42:56;;;;;;;5.25;4.85;;;;;;;15.42;69.15;101630.59;5013953;28;20036;-72
2021/06/26 04:45:22;;;;;;;5.25;4.85;;;;;;;15.38;69.49;101635.03;5014682;28;20105;-72
2021/06/26 04:47:47;;;;;;;5.53;5.13;;;;;;;15.47;69.20;101635.75;5015089;28;20057;-71
2021/06/26 04:50:13;;;;;;;5.35;5.05;;;;;;;15.84;67.61;101640.22;4998041;28;20378;-71
2021/06/26 04:52:40;;;;;;;5.43;5.03;;;;;;;16.04;66.78;101632.69;5013686;28;20327;-72
2021/06/26 04:55:06;;;;;;;5.45;4.88;;;;;;;16.15;67.07;101637.72;4998219;28;20028;-71
2021/06/26 04:57:31;;;;;;;5.68;5.25;;;;;;;16.27;66.51;101639.19;5013509;28;20034;-72
2021/06/26 04:59:56;;;;;;;5.43;5.03;;;;;;;16.37;65.27;101640.69;5013927;28;20084;-72
2021/06/26 05:02:22;;;;;;;5.65;5.25;;;;;;;16.44;65.67;101641.38;5013372;28;20375;-72
2021/06/26 05:04:47;;;;;;;5.90;5.50;;;;;;;16.17;67.88;101640.28;4997804;28;20331;-71
2021/06/26 05:07:13;;;;;;;5.75;5.28;;;;;;;16.19;66.52;101641.16;5013904;28;20108;-72
2021/06/26 05:09:38;;;;;;;6.15;5.47;;;;;;;16.08;67.31;101638.78;5014098;28;20030;-72
2021/06/26 05:12:04;;;;;;;6.70;6.18;;;;;;;16.28;65.40;101645.31;4997219;28;20080;-72
2021/06/26 05:14:30;;;;;;;5.63;5.22;;;;;;;16.43;65.53;101647.56;5013261;28;20040;-71
2021/06/26 05:16:55;;;;;;;5.93;5.63;;;;;;;16.71;64.05;101647.72;5014895;28;20026;-70
2021/06/26 05:19:20;;;;;;;6.45;5.95;;;;;;;16.92;63.86;101650.72;5011125;28;20030;-73
2021/06/26 05:21:46;;;;;;;6.47;6.00;;;;;;;16.78;63.88;101651.03;5001800;28;20377;-73
2021/06/26 05:24:11;;;;;;;6.00;5.60;;;;;;;16.99;63.80;101646.13;5012440;28;20025;-73
2021/06/26 05:26:36;;;;;;;5.90;5.60;;;;;;;17.18;63.04;101652.63;5013370;28;20118;-72
2021/06/26 05:29:02;;;;;;;6.57;6.18;;;;;;;17.29;63.12;101652.31;4996885;28;20121;-72
2021/06/26 05:31:27;;;;;;;6.50;5.97;;;;;;;17.38;63.31;101652.03;5013298;28;20097;-72
2021/06/26 05:33:52;;;;;;;7.32;6.05;;;;;;;17.44;63.06;101661.56;5012994;28;20041;-72
2021/06/26 05:36:18;;;;;;;6.45;6.05;;;;;;;17.49;63.63;101656.13;5014605;28;20093;-72
2021/06/26 05:38:43;;;;;;;5.80;5.50;;;;;;;17.50;64.18;101661.34;5014214;28;20068;-72
2021/06/26 05:41:08;;;;;;;6.72;6.32;;;;;;;17.55;63.56;101658.59;5013320;28;20022;-71
2021/06/26 05:43:36;;;;;;;6.60;6.10;;;;;;;17.64;63.97;101663.59;5013678;28;20013;-71
2021/06/26 05:46:02;;;;;;;7.03;6.43;;;;;;;17.75;63.18;101660.59;5013433;28;20054;-72
2021/06/26 05:48:27;;;;;;;7.47;6.78;;;;;;;17.94;62.13;101660.94;5014036;28;20030;-72
2021/06/26 05:50:53;;;;;;;7.50;6.90;;;;;;;18.02;59.23;101664.19;5013189;28;20083;-72
2021/06/26 05:53:19;;;;;;;7.10;6.47;;;;;;;18.21;58.64;101655.69;5012773;28;20033;-72
2021/06/26 05:55:56;;;;;;;7.70;7.15;;;;;;;18.21;58.70;101663.59;4996413;28;20033;-71
2021/06/26 05:58:27;;;;;;;7.13;6.53;;;;;;;18.21;58.03;101656.53;5013619;28;20073;-73
2021/06/26 06:00:52;;;;;;;7.78;7.13;;;;;;;19.06;56.11;101664.22;4996756;28;20034;-72
2021/06/26 06:03:17;;;;;;;6.97;6.55;;;;;;;19.35;53.96;101669.38;5013096;28;20018;-72
2021/06/26 06:05:43;;;;;;;6.60;6.05;;;;;;;20.43;51.14;101668.63;4996269;28;20308;-71
2021/06/26 06:08:08;;;;;;;5.97;5.47;;;;;;;21.93;47.49;101656.59;5012982;28;20075;-71
2021/06/26 06:10:33;;;;;;;4.93;4.63;;;;;;;22.61;43.97;101653.22;4996031;28;20034;-71
2021/06/26 06:12:59;;;;;;;7.38;5.07;;;;;;;21.65;45.93;101651.75;5012654;28;20156;-72
2021/06/26 06:15:24;;;;;;;7.40;5.28;;;;;;;23.31;43.11;101649.56;4996242;28;20122;-72
2021/06/26 06:17:49;;;;;;;4.95;4.65;;;;;;;23.25;44.49;101656.09;5012765;28;20072;-72
2021/06/26 06:20:15;;;;;;;4.65;4.25;;;;;;;24.10;40.89;101651.34;5013872;28;20034;-72
2021/06/26 06:22:40;;;;;;;3.72;3.53;;;;;;;24.55;39.33;101661.22;5013208;28;20099;-72
2021/06/26 06:25:10;;;;;;;3.92;3.70;;;;;;;24.25;40.51;101660.25;5012721;28;20117;-72
2021/06/26 06:27:36;;;;;;;4.38;4.00;;;;;;;23.89;42.04;101668.63;5013675;28;20025;-72
2021/06/26 06:30:03;;;;;;;5.50;4.10;;;;;;;23.22;42.62;101671.38;5010642;28;20037;-72
2021/06/26 06:32:28;;;;;;;5.13;4.82;;;;;;;22.78;44.15;101668.31;5011265;28;20142;-72
2021/06/26 06:34:53;;;;;;;4.50;4.15;;;;;;;22.53;45.62;101673.19;5013711;28;20097;-72
2021/06/26 06:37:19;;;;;;;5.10;4.70;;;;;;;21.07;49.07;101676.53;4996081;28;20095;-71
2021/06/26 06:39:47;;;;;;;4.88;4.47;;;;;;;21.54;48.33;101675.31;5009639;28;20029;-73
2021/06/26 06:42:12;;;;;;;5.00;4.30;;;;;;;21.77;47.22;101675.09;5012838;28;20045;-72
2021/06/26 06:44:37;;;;;;;4.00;3.72;;;;;;;21.98;44.54;101680.31;5011260;28;20033;-72
2021/06/26 06:47:03;;;;;;;5.90;4.05;;;;;;;22.44;43.14;101678.06;5012611;28;20048;-72
2021/06/26 06:49:28;;;;;;;3.88;3.67;;;;;;;23.50;41.54;101683.22;5011783;28;20029;-71
2021/06/26 06:51:54;;;;;;;5.18;4.78;;;;;;;22.24;43.22;101679.00;5014028;28;20026;-72
2021/06/26 06:54:19;;;;;;;3.40;3.10;;;;;;;23.20;41.35;101678.59;5016165;28;20025;-72
2021/06/26 06:56:45;;;;;;;3.88;3.63;;;;;;;25.45;36.54;101678.00;5016340;28;20025;-73
2021/06/26 06:59:10;;;;;;;3.17;2.97;;;;;;;24.59;37.28;101678.78;5001276;28;20036;-73
2021/06/26 07:01:35;;;;;;;2.47;2.30;;;;;;;26.60;33.43;101680.25;5015252;28;20324;-73
2021/06/26 07:04:00;;;;;;;2.88;2.67;;;;;;;28.09;30.11;101680.50;5016385;28;20053;-73
2021/06/26 07:06:26;;;;;;;4.43;2.70;;;;;;;28.56;29.01;101681.34;5006835;28;20026;-73
2021/06/26 07:08:51;;;;;;;2.78;2.67;;;;;;;26.77;31.56;101679.13;5015244;28;20025;-72
2021/06/26 07:11:16;;;;;;;2.90;2.70;;;;;;;26.30;33.36;101680.50;5015908;28;20386;-72
2021/06/26 07:13:42;;;;;;;3.47;2.53;;;;;;;26.89;31.71;101689.97;5016861;28;20022;-72
2021/06/26 07:16:07;;;;;;;3.25;3.03;;;;;;;25.84;35.13;101684.41;5015134;28;20030;-72
2021/06/26 07:18:32;;;;;;;3.55;3.22;;;;;;;25.25;36.20;101681.91;4998633;28;20033;-72
2021/06/26 07:20:58;;;;;;;2.55;2.35;;;;;;;27.09;32.57;101684.06;5013522;28;20025;-72
2021/06/26 07:23:23;;;;;;;2.30;2.20;;;;;;;27.79;29.62;101687.16;5014630;28;20022;-72
2021/06/26 07:25:48;;;;;;;2.92;2.72;;;;;;;26.77;31.63;101678.28;5014067;28;20022;-73
2021/06/26 07:28:14;;;;;;;2.25;2.15;;;;;;;26.29;33.39;101678.81;5015871;28;20053;-73
2021/06/26 07:30:39;;;;;;;2.72;2.60;;;;;;;28.09;29.59;101673.28;4998810;28;20041;-72
2021/06/26 07:33:04;;;;;;;5.50;3.03;;;;;;;29.08;27.39;101673.78;5013700;28;20051;-73
2021/06/26 07:35:30;;;;;;;2.83;2.47;;;;;;;30.09;25.55;101671.91;5015350;28;20021;-73
2021/06/26 07:37:55;;;;;;;3.15;2.28;;;;;;;30.58;25.62;101666.00;5014661;28;20143;-73
2021/06/26 07:40:20;;;;;;;3.30;3.05;;;;;;;30.15;24.86;101671.38;5014858;28;20030;-73
2021/06/26 07:42:46;;;;;;;3.15;2.85;;;;;;;28.49;27.98;101680.97;5015348;28;20395;-73
2021/06/26 07:45:11;;;;;;;2.42;2.30;;;;;;;28.16;29.60;101681.72;5014489;28;20060;-72
2021/06/26 07:47:37;;;;;;;3.15;2.85;;;;;;;28.42;29.19;101682.44;5013914;28;20022;-72
2021/06/26 07:50:03;;;;;;;2.55;2.35;;;;;;;29.49;26.69;101677.66;5014968;28;20021;-73
2021/06/26 07:52:29;;;;;;;2.60;2.40;;;;;;;25.95;34.52;101681.03;5015017;28;20033;-73
2021/06/26 07:54:54;;;;;;;2.58;2.38;;;;;;;28.70;29.34;101672.28;5016311;28;20022;-73
2021/06/26 07:57:20;;;;;;;3.33;2.90;;;;;;;28.67;26.98;101672.50;4999426;28;20030;-73
2021/06/26 07:59:45;;;;;;;2.88;2.67;;;;;;;29.21;26.77;101672.78;4999090;28;20112;-73
2021/06/26 08:02:11;;;;;;;3.17;2.97;;;;;;;29.01;27.52;101669.84;5015131;28;20133;-72
2021/06/26 08:04:36;;;;;;;3.53;3.22;;;;;;;27.98;28.18;101671.38;5015605;28;20069;-73
2021/06/26 08:07:02;;;;;;;3.10;2.90;;;;;;;27.62;29.62;101666.91;5014982;28;20057;-73
2021/06/26 08:09:27;;;;;;;3.25;2.95;;;;;;;24.59;35.06;101673.44;5016265;28;20029;-73
2021/06/26 08:11:52;;;;;;;4.57;3.10;;;;;;;26.58;31.32;101667.94;5014980;28;20104;-73
2021/06/26 08:14:18;;;;;;;2.80;2.60;;;;;;;27.56;30.06;101667.38;5014781;28;20355;-73
2021/06/26 08:16:43;;;;;;;4.05;2.70;;;;;;;28.69;29.27;101665.19;4998734;28;20026;-73
2021/06/26 08:19:08;;;;;;;3.05;2.85;;;;;;;28.96;27.83;101662.16;4998477;28;20041;-73
2021/06/26 08:21:34;;;;;;;3.20;3.00;;;;;;;29.39;27.58;101657.00;5015527;28;20107;-73
2021/06/26 08:23:59;;;;;;;4.10;3.80;;;;;;;27.13;30.93;101657.88;5015428;28;20140;-73
2021/06/26 08:26:24;;;;;;;3.92;3.72;;;;;;;28.32;29.09;101662.63;5014982;28;20419;-73
2021/06/26 08:28:50;;;;;;;4.50;4.20;;;;;;;27.51;30.58;101656.09;5014933;28;20026;-73
2021/06/26 08:31:15;;;;;;;6.45;4.20;;;;;;;24.16;37.89;101663.50;5013510;28;20022;-73
2021/06/26 08:33:41;;;;;;;4.80;4.50;;;;;;;22.85;40.92;101660.88;5015218;28;20026;-72
2021/06/26 08:36:07;;;;;;;5.63;5.32;;;;;;;22.12;43.46;101664.50;4996655;28;20214;-72
2021/06/26 08:38:35;;;;;;;5.53;5.10;;;;;;;23.00;40.63;101663.66;4998319;28;20033;-72
2021/06/26 08:41:01;;;;;;;5.10;4.68;;;;;;;22.27;42.18;101664.69;5014941;28;20022;-72
2021/06/26 08:43:27;;;;;;;5.30;4.85;;;;;;;23.05;40.80;101665.13;5014943;28;20045;-72
2021/06/26 08:45:53;;;;;;;4.57;4.28;;;;;;;23.78;38.82;101662.03;5014310;28;20018;-72
2021/06/26 08:48:19;;;;;;;4.65;4.30;;;;;;;23.66;39.29;101662.75;4995935;28;20605;-72
2021/06/26 08:50:44;;;;;;;5.80;5.30;;;;;;;21.96;43.21;101666.22;4997662;28;20088;-72
2021/06/26 08:53:10;;;;;;;5.45;4.82;;;;;;;23.00;40.69;101658.31;4998215;28;20033;-71
2021/06/26 08:55:35;;;;;;;6.00;5.47;;;;;;;22.42;42.32;101663.94;4998478;28;20021;-71
2021/06/26 08:58:04;;;;;;;6.13;5.72;;;;;;;21.97;42.92;101661.78;5015047;28;20076;-72
2021/06/26 09:00:30;;;;;;;5.85;5.28;;;;;;;21.90;43.93;101662.06;5014990;28;20053;-72
2021/06/26 09:03:12;;;;;;;5.93;5.43;;;;;;;22.26;42.47;101653.22;4997690;28;20068;-72
2021/06/26 09:05:38;;;;;;;5.90;5.38;;;;;;;22.29;43.29;101654.81;5014821;28;20108;-72
2021/06/26 09:08:08;;;;;;;5.13;4.82;;;;;;;22.26;44.33;101657.66;5014526;28;20084;-72
2021/06/26 09:10:34;;;;;;;8.63;5.53;;;;;;;22.51;43.89;101661.75;5014881;28;20038;-72
2021/06/26 09:13:09;;;;;;;5.13;4.82;;;;;;;21.96;45.06;101666.22;5022834;28;20030;-72
2021/06/26 09:15:35;;;;;;;5.70;5.30;;;;;;;22.10;44.59;101669.06;5011740;28;20029;-72
2021/06/26 09:18:10;;;;;;;4.70;4.40;;;;;;;23.02;42.29;101662.63;5015183;28;20026;-72
2021/06/26 09:20:38;;;;;;;4.40;4.10;;;;;;;23.63;41.35;101662.91;5016397;28;20064;-72
2021/06/26 09:23:05;;;;;;;4.65;4.25;;;;;;;23.69;40.68;101662.56;5013939;28;20113;-72
2021/06/26 09:25:34;;;;;;;5.03;4.68;;;;;;;24.57;38.86;101659.28;5014374;28;20113;-72
2021/06/26 09:28:02;;;;;;;4.75;4.45;;;;;;;24.96;37.78;101655.19;5017664;28;20030;-72
2021/06/26 09:30:41;;;;;;;4.50;4.20;;;;;;;24.70;38.46;101654.13;5035237;28;20076;-72
2021/06/26 09:33:13;;;;;;;5.05;4.65;;;;;;;24.29;38.58;101655.63;5033602;28;20021;-72
2021/06/26 09:35:39;;;;;;;5.13;4.72;;;;;;;24.18;39.94;101663.41;5025177;28;20309;-73
2021/06/26 09:38:06;;;;;;;5.20;4.75;;;;;;;23.99;39.28;101660.94;5014346;28;20022;-72
2021/06/26 09:40:32;;;;;;;5.55;5.15;;;;;;;23.80;39.62;101659.28;5015429;28;20029;-71
2021/06/26 09:42:57;;;;;;;5.85;5.20;;;;;;;23.15;42.23;101660.22;5013604;28;20030;-72
2021/06/26 09:45:23;;;;;;;5.22;4.82;;;;;;;23.31;42.13;101662.88;5030670;28;20045;-72
2021/06/26 09:47:48;;;;;;;6.00;4.78;;;;;;;24.51;38.22;101659.69;5014322;28;20037;-72
2021/06/26 09:50:24;;;;;;;4.97;4.68;;;;;;;22.98;42.85;101665.56;5013238;28;20025;-72
2021/06/26 09:52:59;;;;;;;6.13;5.45;;;;;;;23.11;41.48;101672.81;5012740;28;20412;-71
2021/06/26 09:55:39;;;;;;;6.03;5.60;;;;;;;22.85;43.67;101668.00;5013564;28;20026;-72
2021/06/26 09:58:12;;;;;;;5.78;5.38;;;;;;;22.44;43.03;101667.41;5013441;28;20086;-72
2021/06/26 10:00:41;;;;;;;5.65;5.15;;;;;;;23.28;40.52;101663.06;5014242;28;20034;-72
2021/06/26 10:03:06;;;;;;;6.93;6.32;;;;;;;22.70;42.18;101665.22;5012921;28;20333;-72
2021/06/26 10:05:32;;;;;;;6.43;6.00;;;;;;;23.98;38.81;101662.72;5012693;28;20021;-72
2021/06/26 10:08:03;;;;;;;5.80;5.25;;;;;;;23.88;39.04;101666.88;5013189;28;20022;-71
2021/06/26 10:10:28;;;;;;;4.75;4.45;;;;;;;24.24;40.00;101668.38;5012935;28;20030;-72
2021/06/26 10:12:55;;;;;;;6.07;5.57;;;;;;;24.49;38.97;101662.44;5015202;28;20021;-73
2021/06/26 10:15:22;;;;;;;9.98;5.20;;;;;;;23.73;41.40;101657.94;5030688;28;20342;-73
2021/06/26 10:17:49;;;;;;;6.85;6.35;;;;;;;24.02;40.37;101661.59;5013748;28;20037;-72
2021/06/26 10:20:17;;;;;;;7.93;6.05;;;;;;;23.79;41.95;101657.56;5003234;28;20087;-72
2021/06/26 10:22:44;;;;;;;7.20;6.63;;;;;;;24.02;41.17;101658.94;5002327;28;20442;-73
2021/06/26 10:25:11;;;;;;;7.35;6.85;;;;;;;23.68;41.20;101665.31;5013958;28;20033;-72
2021/06/26 10:27:36;;;;;;;9.02;6.85;;;;;;;23.24;42.78;101665.03;5012978;28;20033;-72
2021/06/26 10:30:17;;;;;;;5.60;5.20;;;;;;;24.00;40.91;101660.84;4996886;28;20021;-72
2021/06/26 10:32:52;;;;;;;6.72;6.22;;;;;;;23.93;42.41;101655.00;5012468;28;20047;-71
2021/06/26 10:35:18;;;;;;;6.85;6.22;;;;;;;24.57;38.42;101651.28;5014443;28;20034;-72
2021/06/26 10:37:43;;;;;;;7.63;6.50;;;;;;;24.93;37.95;101644.69;4996011;28;20038;-72
2021/06/26 10:40:09;;;;;;;6.88;6.38;;;;;;;23.20;42.93;101657.28;5012348;28;20112;-73
2021/06/26 10:42:37;;;;;;;6.90;6.30;;;;;;;24.20;40.77;101658.81;5011687;28;20017;-73
2021/06/26 10:45:08;;;;;;;5.82;5.32;;;;;;;24.91;38.75;101650.13;5009664;28;20120;-72
2021/06/26 10:47:37;;;;;;;6.75;6.22;;;;;;;24.34;41.04;101648.19;4995765;28;20079;-73
2021/06/26 10:50:13;;;;;;;7.22;6.63;;;;;;;24.80;39.67;101650.78;5014216;28;20030;-72
2021/06/26 10:53:05;;;;;;;7.35;6.68;;;;;;;24.53;40.15;101647.97;5012694;28;20026;-72
2021/06/26 10:55:33;;;;;;;7.90;6.35;;;;;;;24.57;40.33;101648.63;5008221;28;20117;-72
2021/06/26 10:58:00;;;;;;;6.75;6.13;;;;;;;24.28;40.61;101640.53;5006550;28;20030;-74
2021/06/26 11:00:37;;;;;;;5.97;5.57;;;;;;;25.91;37.14;101637.56;4996723;28;20029;-72
2021/06/26 11:03:06;;;;;;;6.97;6.43;;;;;;;25.86;37.98;101644.16;4992071;28;20022;-73
2021/06/26 11:05:33;;;;;;;6.40;5.80;;;;;;;26.77;35.80;101646.13;5011872;28;20105;-73
2021/06/26 11:07:59;;;;;;;9.00;6.05;;;;;;;28.14;32.67;101643.38;5013891;28;20636;-74
2021/06/26 11:10:25;;;;;;;6.68;6.10;;;;;;;27.03;34.52;101640.75;5012003;28;20076;-74
2021/06/26 11:12:51;;;;;;;7.28;6.80;;;;;;;25.95;35.49;101639.06;5012260;28;20022;-73
2021/06/26 11:15:25;;;;;;;10.90;6.30;;;;;;;24.38;40.92;101652.41;5013005;28;20029;-73
2021/06/26 11:17:51;;;;;;;6.03;5.53;;;;;;;24.41;40.33;101651.38;5010796;28;20392;-72
2021/06/26 11:20:18;;;;;;;7.45;6.57;;;;;;;24.47;40.28;101650.97;5012707;28;20168;-72